sensor_id;sensor_type;location;lat;lon;timestamp;pressure;altitude;pressure_sealevel;temperature;humidity
63700;BME280;49845;47.130;142.766;2022-07-29T00:01:54;100756.72;;;23.07;69.47
63700;BME280;49845;47.130;142.766;2022-07-29T00:04:26;100746.25;;;23.04;69.29
63700;BME280;49845;47.130;142.766;2022-07-29T00:06:57;100750.53;;;23.07;69.95
63700;BME280;49845;47.130;142.766;2022-07-29T00:09:27;100751.75;;;23.15;69.47
63700;BME280;49845;47.130;142.766;2022-07-29T00:12:00;100748.34;;;23.28;70.54
63700;BME280;49845;47.130;142.766;2022-07-29T00:14:30;100741.69;;;23.35;69.47
63700;BME280;49845;47.130;142.766;2022-07-29T00:17:01;100747.97;;;23.48;69.52
63700;BME280;49845;47.130;142.766;2022-07-29T00:19:34;100747.75;;;23.65;68.47
63700;BME280;49845;47.130;142.766;2022-07-29T00:24:34;100745.56;;;23.72;68.39
63700;BME280;49845;47.130;142.766;2022-07-29T00:27:05;100739.75;;;23.94;68.14
63700;BME280;49845;47.130;142.766;2022-07-29T00:29:35;100744.84;;;24.11;67.18
63700;BME280;49845;47.130;142.766;2022-07-29T00:32:06;100740.78;;;24.19;67.01
63700;BME280;49845;47.130;142.766;2022-07-29T00:34:39;100736.97;;;24.23;66.89
63700;BME280;49845;47.130;142.766;2022-07-29T00:37:26;100749.03;;;24.28;66.77
63700;BME280;49845;47.130;142.766;2022-07-29T00:39:57;100743.63;;;24.30;66.17
63700;BME280;49845;47.130;142.766;2022-07-29T00:42:27;100750.88;;;24.28;65.56
63700;BME280;49845;47.130;142.766;2022-07-29T00:44:58;100747.97;;;24.45;65.90
63700;BME280;49845;47.130;142.766;2022-07-29T00:47:29;100756.00;;;24.58;66.02
63700;BME280;49845;47.130;142.766;2022-07-29T00:50:01;100762.34;;;24.70;65.83
63700;BME280;49845;47.130;142.766;2022-07-29T00:52:32;100758.53;;;24.74;65.20
63700;BME280;49845;47.130;142.766;2022-07-29T00:55:04;100762.81;;;24.77;64.76
63700;BME280;49845;47.130;142.766;2022-07-29T00:57:36;100746.66;;;24.78;64.71
63700;BME280;49845;47.130;142.766;2022-07-29T01:00:09;100745.06;;;24.88;64.79
63700;BME280;49845;47.130;142.766;2022-07-29T01:02:40;100748.25;;;24.93;63.86
63700;BME280;49845;47.130;142.766;2022-07-29T01:05:12;100752.34;;;24.86;64.10
63700;BME280;49845;47.130;142.766;2022-07-29T01:07:43;100738.53;;;24.92;64.42
63700;BME280;49845;47.130;142.766;2022-07-29T01:10:15;100741.53;;;25.01;64.37
63700;BME280;49845;47.130;142.766;2022-07-29T01:12:48;100722.81;;;25.01;64.07
63700;BME280;49845;47.130;142.766;2022-07-29T01:15:19;100747.00;;;25.12;62.64
63700;BME280;49845;47.130;142.766;2022-07-29T01:17:54;100695.56;;;24.43;61.83
63700;BME280;49845;47.130;142.766;2022-07-29T01:20:44;100743.56;;;24.84;63.93
63700;BME280;49845;47.130;142.766;2022-07-29T01:23:51;100733.72;;;24.97;62.71
63700;BME280;49845;47.130;142.766;2022-07-29T01:26:35;100731.38;;;25.06;63.34
63700;BME280;49845;47.130;142.766;2022-07-29T01:29:18;100724.88;;;25.10;62.72
63700;BME280;49845;47.130;142.766;2022-07-29T01:32:05;100721.38;;;25.22;63.28
63700;BME280;49845;47.130;142.766;2022-07-29T01:35:00;100710.41;;;25.12;61.01
63700;BME280;49845;47.130;142.766;2022-07-29T01:37:38;100726.91;;;25.45;62.45
63700;BME280;49845;47.130;142.766;2022-07-29T01:40:14;100705.50;;;25.45;60.29
63700;BME280;49845;47.130;142.766;2022-07-29T01:42:52;100725.41;;;25.40;60.24
63700;BME280;49845;47.130;142.766;2022-07-29T01:45:30;100719.78;;;25.69;61.12
63700;BME280;49845;47.130;142.766;2022-07-29T01:48:10;100725.94;;;25.82;58.36
63700;BME280;49845;47.130;142.766;2022-07-29T01:50:47;100724.53;;;25.53;57.36
63700;BME280;49845;47.130;142.766;2022-07-29T01:53:25;100717.91;;;25.46;60.59
63700;BME280;49845;47.130;142.766;2022-07-29T01:56:05;100714.16;;;25.61;60.71
63700;BME280;49845;47.130;142.766;2022-07-29T01:58:38;100700.00;;;25.59;60.46
63700;BME280;49845;47.130;142.766;2022-07-29T02:01:13;100677.56;;;25.49;60.32
63700;BME280;49845;47.130;142.766;2022-07-29T02:03:45;100697.69;;;25.78;62.04
63700;BME280;49845;47.130;142.766;2022-07-29T02:06:19;100688.00;;;26.01;61.62
63700;BME280;49845;47.130;142.766;2022-07-29T02:08:52;100696.25;;;26.22;61.14
63700;BME280;49845;47.130;142.766;2022-07-29T02:11:24;100711.88;;;26.29;59.39
63700;BME280;49845;47.130;142.766;2022-07-29T02:13:56;100709.03;;;25.95;58.64
63700;BME280;49845;47.130;142.766;2022-07-29T02:16:31;100710.50;;;25.99;59.97
63700;BME280;49845;47.130;142.766;2022-07-29T02:19:03;100712.50;;;25.71;58.96
63700;BME280;49845;47.130;142.766;2022-07-29T02:21:35;100719.47;;;25.74;59.91
63700;BME280;49845;47.130;142.766;2022-07-29T02:24:06;100714.13;;;25.98;60.01
63700;BME280;49845;47.130;142.766;2022-07-29T02:26:40;100713.81;;;26.27;61.19
63700;BME280;49845;47.130;142.766;2022-07-29T02:29:12;100714.81;;;26.37;58.66
63700;BME280;49845;47.130;142.766;2022-07-29T02:31:46;100721.63;;;26.41;60.40
63700;BME280;49845;47.130;142.766;2022-07-29T02:34:19;100717.53;;;26.48;58.37
63700;BME280;49845;47.130;142.766;2022-07-29T02:36:51;100716.88;;;26.09;57.71
63700;BME280;49845;47.130;142.766;2022-07-29T02:39:23;100701.97;;;25.94;59.38
63700;BME280;49845;47.130;142.766;2022-07-29T02:41:59;100711.06;;;26.15;61.23
63700;BME280;49845;47.130;142.766;2022-07-29T02:44:31;100711.06;;;26.63;61.65
63700;BME280;49845;47.130;142.766;2022-07-29T02:47:10;100707.69;;;26.84;59.52
63700;BME280;49845;47.130;142.766;2022-07-29T02:49:46;100713.03;;;26.95;58.63
63700;BME280;49845;47.130;142.766;2022-07-29T02:52:24;100709.41;;;27.07;58.64
63700;BME280;49845;47.130;142.766;2022-07-29T02:55:00;100697.50;;;27.23;58.75
63700;BME280;49845;47.130;142.766;2022-07-29T02:57:34;100700.31;;;27.21;58.53
63700;BME280;49845;47.130;142.766;2022-07-29T03:00:23;100686.75;;;27.23;58.40
63700;BME280;49845;47.130;142.766;2022-07-29T03:03:00;100679.19;;;27.28;59.64
63700;BME280;49845;47.130;142.766;2022-07-29T03:05:34;100680.53;;;27.11;57.03
63700;BME280;49845;47.130;142.766;2022-07-29T03:08:06;100678.94;;;26.86;58.31
63700;BME280;49845;47.130;142.766;2022-07-29T03:10:40;100666.72;;;26.82;59.70
63700;BME280;49845;47.130;142.766;2022-07-29T03:13:14;100673.81;;;27.05;59.41
63700;BME280;49845;47.130;142.766;2022-07-29T03:15:45;100667.97;;;27.23;59.46
63700;BME280;49845;47.130;142.766;2022-07-29T03:18:19;100680.03;;;27.40;58.99
63700;BME280;49845;47.130;142.766;2022-07-29T03:20:50;100677.47;;;27.49;58.16
63700;BME280;49845;47.130;142.766;2022-07-29T03:23:21;100680.13;;;27.61;57.86
63700;BME280;49845;47.130;142.766;2022-07-29T03:25:52;100677.34;;;27.62;56.52
63700;BME280;49845;47.130;142.766;2022-07-29T03:28:24;100674.00;;;27.70;57.92
63700;BME280;49845;47.130;142.766;2022-07-29T03:30:55;100684.75;;;27.81;58.24
63700;BME280;49845;47.130;142.766;2022-07-29T03:33:28;100677.03;;;27.88;58.86
63700;BME280;49845;47.130;142.766;2022-07-29T03:35:58;100675.94;;;27.90;57.34
63700;BME280;49845;47.130;142.766;2022-07-29T03:38:33;100675.34;;;27.87;57.41
63700;BME280;49845;47.130;142.766;2022-07-29T03:41:07;100654.72;;;27.87;58.60
63700;BME280;49845;47.130;142.766;2022-07-29T03:43:40;100670.84;;;27.87;56.19
63700;BME280;49845;47.130;142.766;2022-07-29T03:46:17;100662.50;;;28.02;56.69
63700;BME280;49845;47.130;142.766;2022-07-29T03:48:54;100661.59;;;27.69;56.84
63700;BME280;49845;47.130;142.766;2022-07-29T03:51:26;100627.22;;;27.51;58.23
63700;BME280;49845;47.130;142.766;2022-07-29T03:54:01;100662.53;;;27.79;57.82
63700;BME280;49845;47.130;142.766;2022-07-29T03:56:41;100644.06;;;27.97;57.78
63700;BME280;49845;47.130;142.766;2022-07-29T03:59:15;100655.63;;;28.09;58.04
63700;BME280;49845;47.130;142.766;2022-07-29T04:01:48;100645.59;;;28.11;58.35
63700;BME280;49845;47.130;142.766;2022-07-29T04:04:21;100637.38;;;27.91;58.48
63700;BME280;49845;47.130;142.766;2022-07-29T04:06:53;100628.84;;;27.75;59.46
63700;BME280;49845;47.130;142.766;2022-07-29T04:09:24;100637.19;;;27.83;58.91
63700;BME280;49845;47.130;142.766;2022-07-29T04:11:55;100630.56;;;27.76;58.56
63700;BME280;49845;47.130;142.766;2022-07-29T04:14:31;100623.22;;;27.78;60.23
63700;BME280;49845;47.130;142.766;2022-07-29T04:17:03;100622.22;;;27.90;59.71
63700;BME280;49845;47.130;142.766;2022-07-29T04:19:35;100604.50;;;27.99;59.87
63700;BME280;49845;47.130;142.766;2022-07-29T04:22:06;100623.13;;;28.12;58.06
63700;BME280;49845;47.130;142.766;2022-07-29T04:24:37;100629.63;;;27.98;58.66
63700;BME280;49845;47.130;142.766;2022-07-29T04:27:11;100627.75;;;27.78;58.28
63700;BME280;49845;47.130;142.766;2022-07-29T04:29:41;100630.97;;;27.60;59.43
63700;BME280;49845;47.130;142.766;2022-07-29T04:32:24;100624.31;;;27.43;59.82
63700;BME280;49845;47.130;142.766;2022-07-29T04:34:58;100618.22;;;27.30;60.49
63700;BME280;49845;47.130;142.766;2022-07-29T04:37:29;100618.44;;;27.49;61.18
63700;BME280;49845;47.130;142.766;2022-07-29T04:40:00;100616.84;;;27.90;60.17
63700;BME280;49845;47.130;142.766;2022-07-29T04:42:30;100621.44;;;28.11;58.54
63700;BME280;49845;47.130;142.766;2022-07-29T04:45:13;100620.31;;;28.34;58.72
63700;BME280;49845;47.130;142.766;2022-07-29T04:47:49;100619.53;;;28.44;58.46
63700;BME280;49845;47.130;142.766;2022-07-29T04:50:21;100610.69;;;28.32;58.65
63700;BME280;49845;47.130;142.766;2022-07-29T04:52:52;100621.91;;;28.16;58.69
63700;BME280;49845;47.130;142.766;2022-07-29T04:55:22;100621.38;;;27.90;59.09
63700;BME280;49845;47.130;142.766;2022-07-29T04:57:53;100609.59;;;27.70;60.68
63700;BME280;49845;47.130;142.766;2022-07-29T05:00:25;100607.97;;;27.46;60.57
63700;BME280;49845;47.130;142.766;2022-07-29T05:03:00;100604.06;;;27.39;60.79
63700;BME280;49845;47.130;142.766;2022-07-29T05:05:32;100603.81;;;27.42;61.23
63700;BME280;49845;47.130;142.766;2022-07-29T05:08:03;100610.38;;;27.49;61.00
63700;BME280;49845;47.130;142.766;2022-07-29T05:10:34;100611.84;;;27.42;60.22
63700;BME280;49845;47.130;142.766;2022-07-29T05:13:06;100566.03;;;27.11;61.58
63700;BME280;49845;47.130;142.766;2022-07-29T05:15:37;100612.13;;;27.39;60.97
63700;BME280;49845;47.130;142.766;2022-07-29T05:18:08;100612.59;;;27.33;61.90
63700;BME280;49845;47.130;142.766;2022-07-29T05:20:40;100616.78;;;27.26;62.53
63700;BME280;49845;47.130;142.766;2022-07-29T05:23:11;100611.91;;;27.20;63.71
63700;BME280;49845;47.130;142.766;2022-07-29T05:25:43;100618.34;;;27.17;63.58
63700;BME280;49845;47.130;142.766;2022-07-29T05:28:14;100627.25;;;27.06;63.36
63700;BME280;49845;47.130;142.766;2022-07-29T05:30:45;100629.19;;;27.04;64.63
63700;BME280;49845;47.130;142.766;2022-07-29T05:33:17;100621.50;;;27.00;64.34
63700;BME280;49845;47.130;142.766;2022-07-29T05:36:05;100615.44;;;26.86;64.31
63700;BME280;49845;47.130;142.766;2022-07-29T05:38:36;100615.91;;;26.80;64.23
63700;BME280;49845;47.130;142.766;2022-07-29T05:41:06;100617.25;;;26.75;64.27
63700;BME280;49845;47.130;142.766;2022-07-29T05:43:37;100612.38;;;26.68;64.46
63700;BME280;49845;47.130;142.766;2022-07-29T05:46:08;100602.38;;;26.59;63.96
63700;BME280;49845;47.130;142.766;2022-07-29T05:48:38;100606.97;;;26.46;65.19
63700;BME280;49845;47.130;142.766;2022-07-29T05:51:11;100603.03;;;26.39;65.59
63700;BME280;49845;47.130;142.766;2022-07-29T05:53:41;100601.06;;;26.30;66.02
63700;BME280;49845;47.130;142.766;2022-07-29T05:56:13;100598.00;;;26.23;66.70
63700;BME280;49845;47.130;142.766;2022-07-29T05:58:44;100599.06;;;26.09;67.23
63700;BME280;49845;47.130;142.766;2022-07-29T06:01:14;100597.31;;;25.97;67.12
63700;BME280;49845;47.130;142.766;2022-07-29T06:03:45;100597.25;;;25.86;67.48
63700;BME280;49845;47.130;142.766;2022-07-29T06:06:17;100588.91;;;25.77;67.74
63700;BME280;49845;47.130;142.766;2022-07-29T06:08:49;100595.75;;;25.81;67.97
63700;BME280;49845;47.130;142.766;2022-07-29T06:11:19;100597.47;;;25.82;68.60
63700;BME280;49845;47.130;142.766;2022-07-29T06:13:50;100594.03;;;25.80;67.96
63700;BME280;49845;47.130;142.766;2022-07-29T06:16:21;100595.25;;;25.76;68.10
63700;BME280;49845;47.130;142.766;2022-07-29T06:18:57;100597.28;;;25.73;68.29
63700;BME280;49845;47.130;142.766;2022-07-29T06:21:29;100604.13;;;25.77;68.65
63700;BME280;49845;47.130;142.766;2022-07-29T06:24:00;100603.28;;;25.76;68.70
63700;BME280;49845;47.130;142.766;2022-07-29T06:26:30;100608.41;;;25.79;67.86
63700;BME280;49845;47.130;142.766;2022-07-29T06:29:06;100603.28;;;25.76;67.84
63700;BME280;49845;47.130;142.766;2022-07-29T06:31:37;100608.13;;;25.71;67.66
63700;BME280;49845;47.130;142.766;2022-07-29T06:34:08;100604.44;;;25.61;67.95
63700;BME280;49845;47.130;142.766;2022-07-29T06:36:41;100606.19;;;25.49;68.49
63700;BME280;49845;47.130;142.766;2022-07-29T06:39:12;100600.34;;;25.31;68.13
63700;BME280;49845;47.130;142.766;2022-07-29T06:41:47;100596.75;;;25.07;68.36
63700;BME280;49845;47.130;142.766;2022-07-29T06:44:18;100594.94;;;24.94;69.00
63700;BME280;49845;47.130;142.766;2022-07-29T06:46:49;100603.84;;;24.82;69.48
63700;BME280;49845;47.130;142.766;2022-07-29T06:49:20;100596.69;;;24.70;70.07
63700;BME280;49845;47.130;142.766;2022-07-29T06:51:53;100595.19;;;24.66;70.44
63700;BME280;49845;47.130;142.766;2022-07-29T06:54:24;100591.56;;;24.67;70.24
63700;BME280;49845;47.130;142.766;2022-07-29T06:56:55;100590.50;;;24.57;70.38
63700;BME280;49845;47.130;142.766;2022-07-29T06:59:25;100597.97;;;24.51;70.33
63700;BME280;49845;47.130;142.766;2022-07-29T07:02:02;100596.47;;;24.47;70.62
63700;BME280;49845;47.130;142.766;2022-07-29T07:04:33;100600.72;;;24.37;70.24
63700;BME280;49845;47.130;142.766;2022-07-29T07:07:05;100599.94;;;24.35;70.98
63700;BME280;49845;47.130;142.766;2022-07-29T07:09:36;100599.94;;;24.35;71.08
63700;BME280;49845;47.130;142.766;2022-07-29T07:12:07;100599.41;;;24.30;70.96
63700;BME280;49845;47.130;142.766;2022-07-29T07:14:40;100591.09;;;24.22;71.06
63700;BME280;49845;47.130;142.766;2022-07-29T07:17:10;100597.03;;;24.13;71.52
63700;BME280;49845;47.130;142.766;2022-07-29T07:19:41;100602.59;;;24.09;72.49
63700;BME280;49845;47.130;142.766;2022-07-29T07:22:13;100600.84;;;24.08;72.60
63700;BME280;49845;47.130;142.766;2022-07-29T07:24:44;100600.31;;;24.03;72.40
63700;BME280;49845;47.130;142.766;2022-07-29T07:27:14;100589.63;;;24.03;72.54
63700;BME280;49845;47.130;142.766;2022-07-29T07:29:45;100591.91;;;24.09;72.78
63700;BME280;49845;47.130;142.766;2022-07-29T07:32:16;100590.41;;;24.05;72.17
63700;BME280;49845;47.130;142.766;2022-07-29T07:34:46;100591.47;;;24.03;72.54
63700;BME280;49845;47.130;142.766;2022-07-29T07:37:19;100589.53;;;24.05;72.57
63700;BME280;49845;47.130;142.766;2022-07-29T07:39:49;100583.75;;;23.98;72.56
63700;BME280;49845;47.130;142.766;2022-07-29T07:42:20;100584.06;;;23.94;72.65
63700;BME280;49845;47.130;142.766;2022-07-29T07:44:51;100575.84;;;23.84;72.57
63700;BME280;49845;47.130;142.766;2022-07-29T07:47:40;100527.56;;;23.47;72.71
63700;BME280;49845;47.130;142.766;2022-07-29T07:50:11;100584.34;;;23.76;73.04
63700;BME280;49845;47.130;142.766;2022-07-29T07:52:51;100587.69;;;23.65;72.69
63700;BME280;49845;47.130;142.766;2022-07-29T07:55:23;100568.50;;;23.46;72.76
63700;BME280;49845;47.130;142.766;2022-07-29T07:57:54;100585.81;;;23.53;72.66
63700;BME280;49845;47.130;142.766;2022-07-29T08:00:25;100580.91;;;23.47;72.63
63700;BME280;49845;47.130;142.766;2022-07-29T08:02:56;100582.06;;;23.43;72.86
63700;BME280;49845;47.130;142.766;2022-07-29T08:05:27;100582.47;;;23.37;73.02
63700;BME280;49845;47.130;142.766;2022-07-29T08:07:59;100578.28;;;23.33;73.30
63700;BME280;49845;47.130;142.766;2022-07-29T08:10:30;100588.16;;;23.31;73.40
63700;BME280;49845;47.130;142.766;2022-07-29T08:13:18;100572.59;;;23.24;73.29
63700;BME280;49845;47.130;142.766;2022-07-29T08:15:49;100567.00;;;23.15;73.40
63700;BME280;49845;47.130;142.766;2022-07-29T08:18:26;100578.28;;;23.18;73.31
63700;BME280;49845;47.130;142.766;2022-07-29T08:20:57;100579.19;;;23.19;73.15
63700;BME280;49845;47.130;142.766;2022-07-29T08:23:29;100583.63;;;23.18;72.85
63700;BME280;49845;47.130;142.766;2022-07-29T08:26:15;100578.22;;;23.06;73.12
63700;BME280;49845;47.130;142.766;2022-07-29T08:28:46;100572.69;;;22.80;73.71
63700;BME280;49845;47.130;142.766;2022-07-29T08:31:18;100591.84;;;22.72;74.30
63700;BME280;49845;47.130;142.766;2022-07-29T08:33:49;100570.97;;;22.50;74.57
63700;BME280;49845;47.130;142.766;2022-07-29T08:36:20;100585.91;;;22.53;75.22
63700;BME280;49845;47.130;142.766;2022-07-29T08:38:52;100577.75;;;22.42;75.36
63700;BME280;49845;47.130;142.766;2022-07-29T08:41:23;100589.31;;;22.40;76.25
63700;BME280;49845;47.130;142.766;2022-07-29T08:43:54;100598.34;;;22.38;76.09
63700;BME280;49845;47.130;142.766;2022-07-29T08:46:25;100591.78;;;22.29;76.34
63700;BME280;49845;47.130;142.766;2022-07-29T08:48:56;100590.59;;;22.19;76.55
63700;BME280;49845;47.130;142.766;2022-07-29T08:51:27;100586.75;;;22.09;77.16
63700;BME280;49845;47.130;142.766;2022-07-29T08:53:59;100583.50;;;22.04;77.37
63700;BME280;49845;47.130;142.766;2022-07-29T08:56:30;100583.03;;;21.97;77.54
63700;BME280;49845;47.130;142.766;2022-07-29T08:59:03;100585.00;;;21.93;78.33
63700;BME280;49845;47.130;142.766;2022-07-29T09:01:38;100585.94;;;21.92;78.52
63700;BME280;49845;47.130;142.766;2022-07-29T09:04:19;100590.50;;;21.90;78.37
63700;BME280;49845;47.130;142.766;2022-07-29T09:06:52;100582.19;;;21.81;78.83
63700;BME280;49845;47.130;142.766;2022-07-29T09:09:26;100586.84;;;21.77;79.33
63700;BME280;49845;47.130;142.766;2022-07-29T09:12:00;100600.28;;;21.74;79.58
63700;BME280;49845;47.130;142.766;2022-07-29T09:14:32;100608.47;;;21.71;79.74
63700;BME280;49845;47.130;142.766;2022-07-29T09:17:02;100599.22;;;21.62;80.05
63700;BME280;49845;47.130;142.766;2022-07-29T09:19:35;100600.41;;;21.57;80.36
63700;BME280;49845;47.130;142.766;2022-07-29T09:22:12;100605.91;;;21.53;80.43
63700;BME280;49845;47.130;142.766;2022-07-29T09:25:00;100599.22;;;21.46;80.60
63700;BME280;49845;47.130;142.766;2022-07-29T09:27:33;100602.22;;;21.40;80.71
63700;BME280;49845;47.130;142.766;2022-07-29T09:30:05;100608.31;;;21.42;80.64
63700;BME280;49845;47.130;142.766;2022-07-29T09:32:56;100599.72;;;21.37;80.51
63700;BME280;49845;47.130;142.766;2022-07-29T09:35:30;100617.56;;;21.35;80.41
63700;BME280;49845;47.130;142.766;2022-07-29T09:38:11;100604.59;;;21.29;80.44
63700;BME280;49845;47.130;142.766;2022-07-29T09:40:56;100614.78;;;21.21;80.84
63700;BME280;49845;47.130;142.766;2022-07-29T09:43:33;100608.25;;;21.10;80.85
63700;BME280;49845;47.130;142.766;2022-07-29T09:46:13;100601.75;;;21.00;81.17
63700;BME280;49845;47.130;142.766;2022-07-29T09:48:44;100610.97;;;20.93;81.63
63700;BME280;49845;47.130;142.766;2022-07-29T09:51:18;100602.41;;;20.88;81.80
63700;BME280;49845;47.130;142.766;2022-07-29T09:54:22;100603.78;;;20.79;81.99
63700;BME280;49845;47.130;142.766;2022-07-29T09:56:55;100616.50;;;20.73;82.48
63700;BME280;49845;47.130;142.766;2022-07-29T09:59:26;100606.19;;;20.66;82.67
63700;BME280;49845;47.130;142.766;2022-07-29T10:01:57;100606.69;;;20.57;82.81
63700;BME280;49845;47.130;142.766;2022-07-29T10:04:39;100605.91;;;20.55;83.45
63700;BME280;49845;47.130;142.766;2022-07-29T10:07:10;100587.00;;;20.44;83.47
63700;BME280;49845;47.130;142.766;2022-07-29T10:09:52;100611.38;;;20.52;83.57
63700;BME280;49845;47.130;142.766;2022-07-29T10:12:25;100625.72;;;20.48;84.08
63700;BME280;49845;47.130;142.766;2022-07-29T10:14:56;100618.84;;;20.44;83.95
63700;BME280;49845;47.130;142.766;2022-07-29T10:17:28;100621.03;;;20.36;84.49
63700;BME280;49845;47.130;142.766;2022-07-29T10:20:01;100621.22;;;20.33;84.58
63700;BME280;49845;47.130;142.766;2022-07-29T10:22:40;100623.25;;;20.28;84.88
63700;BME280;49845;47.130;142.766;2022-07-29T10:25:21;100597.31;;;20.15;85.28
63700;BME280;49845;47.130;142.766;2022-07-29T10:27:54;100619.97;;;20.22;85.58
63700;BME280;49845;47.130;142.766;2022-07-29T10:30:26;100629.84;;;20.19;85.41
63700;BME280;49845;47.130;142.766;2022-07-29T10:33:10;100632.13;;;20.26;85.66
63700;BME280;49845;47.130;142.766;2022-07-29T10:38:49;100635.88;;;20.22;85.39
63700;BME280;49845;47.130;142.766;2022-07-29T10:41:52;100646.50;;;20.22;85.34
63700;BME280;49845;47.130;142.766;2022-07-29T10:44:28;100647.81;;;20.14;85.62
63700;BME280;49845;47.130;142.766;2022-07-29T10:46:59;100651.41;;;20.13;85.97
63700;BME280;49845;47.130;142.766;2022-07-29T10:49:30;100647.09;;;20.10;86.11
63700;BME280;49845;47.130;142.766;2022-07-29T10:52:02;100645.69;;;20.03;86.49
63700;BME280;49845;47.130;142.766;2022-07-29T10:54:45;100648.50;;;20.00;87.00
63700;BME280;49845;47.130;142.766;2022-07-29T10:57:18;100657.25;;;20.02;87.18
63700;BME280;49845;47.130;142.766;2022-07-29T11:00:29;100654.44;;;20.05;87.56
63700;BME280;49845;47.130;142.766;2022-07-29T11:03:00;100672.84;;;20.08;87.32
63700;BME280;49845;47.130;142.766;2022-07-29T11:05:53;100666.59;;;20.09;87.37
63700;BME280;49845;47.130;142.766;2022-07-29T11:08:27;100656.16;;;20.06;87.21
63700;BME280;49845;47.130;142.766;2022-07-29T11:14:14;100668.94;;;19.98;87.18
63700;BME280;49845;47.130;142.766;2022-07-29T11:17:03;100670.94;;;19.93;87.34
63700;BME280;49845;47.130;142.766;2022-07-29T11:19:40;100668.75;;;19.83;87.70
63700;BME280;49845;47.130;142.766;2022-07-29T11:22:32;100669.59;;;19.84;88.08
63700;BME280;49845;47.130;142.766;2022-07-29T11:25:16;100666.25;;;19.80;88.11
63700;BME280;49845;47.130;142.766;2022-07-29T11:28:13;100678.28;;;19.88;88.01
63700;BME280;49845;47.130;142.766;2022-07-29T11:30:52;100671.53;;;19.80;88.10
63700;BME280;49845;47.130;142.766;2022-07-29T11:33:30;100663.34;;;19.66;88.57
63700;BME280;49845;47.130;142.766;2022-07-29T11:36:20;100667.63;;;19.70;88.80
63700;BME280;49845;47.130;142.766;2022-07-29T11:39:25;100661.38;;;19.71;88.93
63700;BME280;49845;47.130;142.766;2022-07-29T11:45:03;100658.66;;;19.73;89.05
63700;BME280;49845;47.130;142.766;2022-07-29T11:47:56;100657.94;;;19.69;89.12
63700;BME280;49845;47.130;142.766;2022-07-29T11:50:51;100664.38;;;19.64;89.23
63700;BME280;49845;47.130;142.766;2022-07-29T11:53:25;100670.50;;;19.64;89.89
63700;BME280;49845;47.130;142.766;2022-07-29T11:56:00;100671.53;;;19.61;89.92
63700;BME280;49845;47.130;142.766;2022-07-29T11:58:31;100667.97;;;19.63;90.21
63700;BME280;49845;47.130;142.766;2022-07-29T12:01:04;100665.13;;;19.67;90.47
63700;BME280;49845;47.130;142.766;2022-07-29T12:03:35;100667.78;;;19.67;90.31
63700;BME280;49845;47.130;142.766;2022-07-29T12:06:13;100663.34;;;19.66;90.64
63700;BME280;49845;47.130;142.766;2022-07-29T12:08:47;100668.66;;;19.66;90.69
63700;BME280;49845;47.130;142.766;2022-07-29T12:11:18;100670.28;;;19.70;90.49
63700;BME280;49845;47.130;142.766;2022-07-29T12:13:50;100663.50;;;19.63;90.55
63700;BME280;49845;47.130;142.766;2022-07-29T12:16:21;100658.22;;;19.63;90.78
63700;BME280;49845;47.130;142.766;2022-07-29T12:18:59;100653.22;;;19.57;90.72
63700;BME280;49845;47.130;142.766;2022-07-29T12:21:45;100662.06;;;19.56;90.90
63700;BME280;49845;47.130;142.766;2022-07-29T12:24:23;100662.06;;;19.56;90.95
63700;BME280;49845;47.130;142.766;2022-07-29T12:26:55;100648.03;;;19.54;91.32
63700;BME280;49845;47.130;142.766;2022-07-29T12:29:27;100632.72;;;19.42;91.27
63700;BME280;49845;47.130;142.766;2022-07-29T12:32:03;100663.81;;;19.57;91.27
63700;BME280;49845;47.130;142.766;2022-07-29T12:34:46;100659.28;;;19.59;91.49
63700;BME280;49845;47.130;142.766;2022-07-29T12:37:19;100660.06;;;19.61;91.65
63700;BME280;49845;47.130;142.766;2022-07-29T12:40:09;100644.91;;;19.46;91.81
63700;BME280;49845;47.130;142.766;2022-07-29T12:42:40;100662.06;;;19.56;92.00
63700;BME280;49845;47.130;142.766;2022-07-29T12:45:10;100663.03;;;19.55;92.21
63700;BME280;49845;47.130;142.766;2022-07-29T12:47:54;100666.59;;;19.54;92.34
63700;BME280;49845;47.130;142.766;2022-07-29T12:50:24;100662.06;;;19.56;92.50
63700;BME280;49845;47.130;142.766;2022-07-29T12:53:08;100651.47;;;19.56;92.18
63700;BME280;49845;47.130;142.766;2022-07-29T12:55:44;100650.56;;;19.57;92.24
63700;BME280;49845;47.130;142.766;2022-07-29T12:58:27;100648.03;;;19.54;92.27
63700;BME280;49845;47.130;142.766;2022-07-29T13:01:04;100625.69;;;19.40;92.63
63700;BME280;49845;47.130;142.766;2022-07-29T13:03:52;100647.19;;;19.53;92.28
63700;BME280;49845;47.130;142.766;2022-07-29T13:06:35;100639.28;;;19.52;92.59
63700;BME280;49845;47.130;142.766;2022-07-29T13:09:12;100632.28;;;19.51;92.98
63700;BME280;49845;47.130;142.766;2022-07-29T13:11:44;100642.72;;;19.54;92.91
63700;BME280;49845;47.130;142.766;2022-07-29T13:14:31;100634.88;;;19.52;92.89
63700;BME280;49845;47.130;142.766;2022-07-29T13:17:04;100629.47;;;19.54;92.96
63700;BME280;49845;47.130;142.766;2022-07-29T13:19:38;100618.41;;;19.46;93.07
63700;BME280;49845;47.130;142.766;2022-07-29T13:22:09;100625.41;;;19.47;93.03